sensor_id;sensor_type;location;lat;lon;timestamp;P1;durP1;ratioP1;P2;durP2;ratioP2
81056;SDS011;70563;50.084;14.468;2023-10-09T00:00:05;8.07;;;5.13;;
81056;SDS011;70563;50.084;14.468;2023-10-09T00:02:51;6.35;;;4.72;;
81056;SDS011;70563;50.084;14.468;2023-10-09T00:05:18;7.05;;;4.60;;
81056;SDS011;70563;50.084;14.468;2023-10-09T00:08:03;13.45;;;4.75;;
81056;SDS011;70563;50.084;14.468;2023-10-09T00:10:29;9.20;;;4.80;;
81056;SDS011;70563;50.084;14.468;2023-10-09T00:13:02;5.90;;;3.53;;
81056;SDS011;70563;50.084;14.468;2023-10-09T00:15:28;8.25;;;3.90;;
81056;SDS011;70563;50.084;14.468;2023-10-09T00:17:58;6.05;;;3.47;;
81056;SDS011;70563;50.084;14.468;2023-10-09T00:20:23;7.80;;;3.60;;
81056;SDS011;70563;50.084;14.468;2023-10-09T00:23:03;6.72;;;4.03;;
81056;SDS011;70563;50.084;14.468;2023-10-09T00:25:37;6.78;;;3.95;;
81056;SDS011;70563;50.084;14.468;2023-10-09T00:28:09;8.27;;;4.55;;
81056;SDS011;70563;50.084;14.468;2023-10-09T00:30:40;6.00;;;4.30;;
81056;SDS011;70563;50.084;14.468;2023-10-09T00:33:06;7.03;;;4.03;;
81056;SDS011;70563;50.084;14.468;2023-10-09T00:35:37;8.48;;;4.70;;
81056;SDS011;70563;50.084;14.468;2023-10-09T00:38:11;7.07;;;4.10;;
81056;SDS011;70563;50.084;14.468;2023-10-09T00:40:49;9.27;;;5.28;;
81056;SDS011;70563;50.084;14.468;2023-10-09T00:43:34;5.93;;;3.80;;
81056;SDS011;70563;50.084;14.468;2023-10-09T00:46:01;4.90;;;3.47;;
81056;SDS011;70563;50.084;14.468;2023-10-09T00:48:49;9.38;;;4.30;;
81056;SDS011;70563;50.084;14.468;2023-10-09T00:51:17;5.57;;;3.55;;
81056;SDS011;70563;50.084;14.468;2023-10-09T00:53:56;6.97;;;3.88;;
81056;SDS011;70563;50.084;14.468;2023-10-09T00:56:31;6.43;;;3.83;;
81056;SDS011;70563;50.084;14.468;2023-10-09T00:59:04;5.70;;;3.33;;
81056;SDS011;70563;50.084;14.468;2023-10-09T01:01:34;8.98;;;4.03;;
81056;SDS011;70563;50.084;14.468;2023-10-09T01:04:03;8.35;;;3.85;;
81056;SDS011;70563;50.084;14.468;2023-10-09T01:06:38;7.50;;;4.30;;
81056;SDS011;70563;50.084;14.468;2023-10-09T01:09:13;4.75;;;3.30;;
81056;SDS011;70563;50.084;14.468;2023-10-09T01:11:41;7.10;;;3.58;;
81056;SDS011;70563;50.084;14.468;2023-10-09T01:14:14;6.72;;;3.60;;
81056;SDS011;70563;50.084;14.468;2023-10-09T01:16:40;6.53;;;3.40;;
81056;SDS011;70563;50.084;14.468;2023-10-09T01:19:09;5.95;;;3.22;;
81056;SDS011;70563;50.084;14.468;2023-10-09T01:21:53;5.97;;;3.30;;
81056;SDS011;70563;50.084;14.468;2023-10-09T01:24:19;8.52;;;4.35;;
81056;SDS011;70563;50.084;14.468;2023-10-09T01:26:45;6.53;;;3.90;;
81056;SDS011;70563;50.084;14.468;2023-10-09T01:29:18;7.68;;;3.78;;
81056;SDS011;70563;50.084;14.468;2023-10-09T01:34:33;5.55;;;3.67;;
81056;SDS011;70563;50.084;14.468;2023-10-09T01:37:19;9.05;;;3.78;;
81056;SDS011;70563;50.084;14.468;2023-10-09T01:39:54;7.82;;;3.72;;
81056;SDS011;70563;50.084;14.468;2023-10-09T01:42:40;6.85;;;3.95;;
81056;SDS011;70563;50.084;14.468;2023-10-09T01:45:10;5.20;;;3.50;;
81056;SDS011;70563;50.084;14.468;2023-10-09T01:47:36;6.13;;;3.25;;
81056;SDS011;70563;50.084;14.468;2023-10-09T01:50:05;4.78;;;2.80;;
81056;SDS011;70563;50.084;14.468;2023-10-09T01:52:36;4.63;;;3.28;;
81056;SDS011;70563;50.084;14.468;2023-10-09T01:55:02;8.55;;;3.85;;
81056;SDS011;70563;50.084;14.468;2023-10-09T01:57:48;5.70;;;3.33;;
81056;SDS011;70563;50.084;14.468;2023-10-09T02:00:13;6.90;;;3.50;;
81056;SDS011;70563;50.084;14.468;2023-10-09T02:02:41;6.57;;;4.18;;
81056;SDS011;70563;50.084;14.468;2023-10-09T02:05:10;5.60;;;3.35;;
81056;SDS011;70563;50.084;14.468;2023-10-09T02:07:49;5.43;;;3.47;;
81056;SDS011;70563;50.084;14.468;2023-10-09T02:10:18;6.35;;;3.63;;
81056;SDS011;70563;50.084;14.468;2023-10-09T02:12:56;6.18;;;3.67;;
81056;SDS011;70563;50.084;14.468;2023-10-09T02:15:25;8.02;;;3.40;;
81056;SDS011;70563;50.084;14.468;2023-10-09T02:18:16;4.72;;;3.35;;
81056;SDS011;70563;50.084;14.468;2023-10-09T02:23:37;6.68;;;3.72;;
81056;SDS011;70563;50.084;14.468;2023-10-09T02:26:11;4.25;;;3.38;;
81056;SDS011;70563;50.084;14.468;2023-10-09T02:28:49;7.95;;;3.78;;
81056;SDS011;70563;50.084;14.468;2023-10-09T02:31:27;6.35;;;3.80;;
81056;SDS011;70563;50.084;14.468;2023-10-09T02:34:00;7.55;;;3.78;;
81056;SDS011;70563;50.084;14.468;2023-10-09T02:36:30;6.00;;;4.03;;
81056;SDS011;70563;50.084;14.468;2023-10-09T02:38:55;5.85;;;3.60;;
81056;SDS011;70563;50.084;14.468;2023-10-09T02:41:21;7.28;;;4.00;;
81056;SDS011;70563;50.084;14.468;2023-10-09T02:43:53;6.32;;;3.08;;
81056;SDS011;70563;50.084;14.468;2023-10-09T02:46:20;5.07;;;3.78;;
81056;SDS011;70563;50.084;14.468;2023-10-09T02:48:54;4.47;;;3.40;;
81056;SDS011;70563;50.084;14.468;2023-10-09T02:51:21;5.82;;;3.38;;
81056;SDS011;70563;50.084;14.468;2023-10-09T02:53:57;5.75;;;3.78;;
81056;SDS011;70563;50.084;14.468;2023-10-09T02:56:24;6.00;;;3.50;;
81056;SDS011;70563;50.084;14.468;2023-10-09T02:59:01;4.70;;;2.90;;
81056;SDS011;70563;50.084;14.468;2023-10-09T03:01:34;4.75;;;3.60;;
81056;SDS011;70563;50.084;14.468;2023-10-09T03:04:02;5.68;;;3.50;;
81056;SDS011;70563;50.084;14.468;2023-10-09T03:06:28;6.28;;;3.40;;
81056;SDS011;70563;50.084;14.468;2023-10-09T03:08:57;4.50;;;3.45;;
81056;SDS011;70563;50.084;14.468;2023-10-09T03:11:22;7.55;;;3.10;;
81056;SDS011;70563;50.084;14.468;2023-10-09T03:13:48;6.80;;;3.25;;
81056;SDS011;70563;50.084;14.468;2023-10-09T03:16:14;4.93;;;3.65;;
81056;SDS011;70563;50.084;14.468;2023-10-09T03:18:41;7.57;;;3.58;;
81056;SDS011;70563;50.084;14.468;2023-10-09T03:21:07;6.28;;;3.47;;
81056;SDS011;70563;50.084;14.468;2023-10-09T03:23:33;5.22;;;3.78;;
81056;SDS011;70563;50.084;14.468;2023-10-09T03:25:59;8.27;;;4.28;;
81056;SDS011;70563;50.084;14.468;2023-10-09T03:28:24;5.88;;;3.38;;
81056;SDS011;70563;50.084;14.468;2023-10-09T03:30:49;6.03;;;3.80;;
81056;SDS011;70563;50.084;14.468;2023-10-09T03:33:16;5.45;;;3.42;;
81056;SDS011;70563;50.084;14.468;2023-10-09T03:35:42;5.85;;;3.30;;
81056;SDS011;70563;50.084;14.468;2023-10-09T03:38:08;6.72;;;3.83;;
81056;SDS011;70563;50.084;14.468;2023-10-09T03:40:44;6.85;;;3.10;;
81056;SDS011;70563;50.084;14.468;2023-10-09T03:43:13;6.55;;;3.45;;
81056;SDS011;70563;50.084;14.468;2023-10-09T03:45:41;4.40;;;3.58;;
81056;SDS011;70563;50.084;14.468;2023-10-09T03:48:19;6.43;;;3.50;;
81056;SDS011;70563;50.084;14.468;2023-10-09T03:50:56;5.00;;;3.63;;
81056;SDS011;70563;50.084;14.468;2023-10-09T03:53:45;5.90;;;4.07;;
81056;SDS011;70563;50.084;14.468;2023-10-09T03:56:12;6.30;;;3.22;;
81056;SDS011;70563;50.084;14.468;2023-10-09T03:58:42;5.80;;;3.20;;
81056;SDS011;70563;50.084;14.468;2023-10-09T04:01:10;5.15;;;3.50;;
81056;SDS011;70563;50.084;14.468;2023-10-09T04:03:50;6.78;;;3.63;;
81056;SDS011;70563;50.084;14.468;2023-10-09T04:06:23;7.93;;;3.83;;
81056;SDS011;70563;50.084;14.468;2023-10-09T04:08:53;5.32;;;3.97;;
81056;SDS011;70563;50.084;14.468;2023-10-09T04:11:19;6.75;;;3.25;;
81056;SDS011;70563;50.084;14.468;2023-10-09T04:13:48;5.07;;;3.08;;
81056;SDS011;70563;50.084;14.468;2023-10-09T04:16:18;7.63;;;4.70;;
81056;SDS011;70563;50.084;14.468;2023-10-09T04:18:57;8.65;;;3.80;;
81056;SDS011;70563;50.084;14.468;2023-10-09T04:21:23;4.72;;;3.13;;
81056;SDS011;70563;50.084;14.468;2023-10-09T04:24:05;4.55;;;3.28;;
81056;SDS011;70563;50.084;14.468;2023-10-09T04:26:47;3.92;;;3.08;;
81056;SDS011;70563;50.084;14.468;2023-10-09T04:29:19;4.22;;;2.83;;
81056;SDS011;70563;50.084;14.468;2023-10-09T04:31:56;4.22;;;2.90;;
81056;SDS011;70563;50.084;14.468;2023-10-09T04:34:25;5.88;;;2.80;;
81056;SDS011;70563;50.084;14.468;2023-10-09T04:36:56;5.90;;;2.58;;
81056;SDS011;70563;50.084;14.468;2023-10-09T04:39:25;5.22;;;2.63;;
81056;SDS011;70563;50.084;14.468;2023-10-09T04:41:54;5.50;;;2.63;;
81056;SDS011;70563;50.084;14.468;2023-10-09T04:44:40;3.85;;;2.88;;
81056;SDS011;70563;50.084;14.468;2023-10-09T04:47:24;4.85;;;2.90;;
81056;SDS011;70563;50.084;14.468;2023-10-09T04:50:01;4.63;;;2.72;;
81056;SDS011;70563;50.084;14.468;2023-10-09T04:52:28;5.70;;;2.90;;
81056;SDS011;70563;50.084;14.468;2023-10-09T04:54:53;4.90;;;2.83;;
81056;SDS011;70563;50.084;14.468;2023-10-09T04:57:37;4.03;;;3.00;;
81056;SDS011;70563;50.084;14.468;2023-10-09T05:00:17;5.22;;;3.08;;
81056;SDS011;70563;50.084;14.468;2023-10-09T05:02:56;5.95;;;2.80;;
81056;SDS011;70563;50.084;14.468;2023-10-09T05:05:24;6.40;;;3.35;;
81056;SDS011;70563;50.084;14.468;2023-10-09T05:07:58;4.93;;;3.53;;
81056;SDS011;70563;50.084;14.468;2023-10-09T05:10:41;6.03;;;3.20;;
81056;SDS011;70563;50.084;14.468;2023-10-09T05:13:19;4.68;;;2.65;;
81056;SDS011;70563;50.084;14.468;2023-10-09T05:18:38;4.47;;;2.80;;
81056;SDS011;70563;50.084;14.468;2023-10-09T05:21:03;5.97;;;3.08;;
81056;SDS011;70563;50.084;14.468;2023-10-09T05:23:49;6.35;;;3.22;;
81056;SDS011;70563;50.084;14.468;2023-10-09T05:26:34;5.70;;;2.70;;
81056;SDS011;70563;50.084;14.468;2023-10-09T05:31:49;4.40;;;2.85;;
81056;SDS011;70563;50.084;14.468;2023-10-09T05:34:41;6.55;;;2.92;;
81056;SDS011;70563;50.084;14.468;2023-10-09T05:37:26;7.55;;;3.25;;
81056;SDS011;70563;50.084;14.468;2023-10-09T05:40:02;4.13;;;2.78;;
81056;SDS011;70563;50.084;14.468;2023-10-09T05:42:41;6.15;;;3.55;;
81056;SDS011;70563;50.084;14.468;2023-10-09T05:47:42;4.07;;;2.83;;
81056;SDS011;70563;50.084;14.468;2023-10-09T05:50:30;6.78;;;3.17;;
81056;SDS011;70563;50.084;14.468;2023-10-09T05:52:59;10.07;;;3.60;;
81056;SDS011;70563;50.084;14.468;2023-10-09T05:55:31;8.93;;;3.40;;
81056;SDS011;70563;50.084;14.468;2023-10-09T05:58:15;5.65;;;3.13;;
81056;SDS011;70563;50.084;14.468;2023-10-09T06:00:50;6.85;;;2.97;;
81056;SDS011;70563;50.084;14.468;2023-10-09T06:03:34;7.05;;;2.65;;
81056;SDS011;70563;50.084;14.468;2023-10-09T06:06:19;4.10;;;2.65;;
81056;SDS011;70563;50.084;14.468;2023-10-09T06:09:04;5.13;;;2.67;;
81056;SDS011;70563;50.084;14.468;2023-10-09T06:11:43;6.47;;;2.85;;
81056;SDS011;70563;50.084;14.468;2023-10-09T06:14:24;8.02;;;2.60;;
81056;SDS011;70563;50.084;14.468;2023-10-09T06:16:56;10.27;;;2.95;;
81056;SDS011;70563;50.084;14.468;2023-10-09T06:19:23;10.93;;;3.88;;
81056;SDS011;70563;50.084;14.468;2023-10-09T06:21:59;7.38;;;3.17;;
81056;SDS011;70563;50.084;14.468;2023-10-09T06:24:37;5.38;;;2.90;;
81056;SDS011;70563;50.084;14.468;2023-10-09T06:27:19;6.57;;;2.85;;
81056;SDS011;70563;50.084;14.468;2023-10-09T06:29:57;5.20;;;2.80;;
81056;SDS011;70563;50.084;14.468;2023-10-09T06:32:40;4.05;;;3.38;;
81056;SDS011;70563;50.084;14.468;2023-10-09T06:35:44;5.07;;;3.13;;
81056;SDS011;70563;50.084;14.468;2023-10-09T06:38:18;5.82;;;2.75;;
81056;SDS011;70563;50.084;14.468;2023-10-09T06:40:49;5.90;;;2.95;;
81056;SDS011;70563;50.084;14.468;2023-10-09T06:43:21;9.18;;;3.63;;
81056;SDS011;70563;50.084;14.468;2023-10-09T06:45:48;5.38;;;3.38;;
81056;SDS011;70563;50.084;14.468;2023-10-09T06:48:26;5.68;;;3.53;;
81056;SDS011;70563;50.084;14.468;2023-10-09T06:51:05;6.28;;;3.00;;
81056;SDS011;70563;50.084;14.468;2023-10-09T06:54:01;4.18;;;2.65;;
81056;SDS011;70563;50.084;14.468;2023-10-09T06:56:32;8.43;;;2.80;;
81056;SDS011;70563;50.084;14.468;2023-10-09T06:58:58;6.50;;;3.53;;
81056;SDS011;70563;50.084;14.468;2023-10-09T07:01:29;6.03;;;3.10;;
81056;SDS011;70563;50.084;14.468;2023-10-09T07:04:07;7.47;;;3.35;;
81056;SDS011;70563;50.084;14.468;2023-10-09T07:06:52;6.18;;;3.33;;
81056;SDS011;70563;50.084;14.468;2023-10-09T07:09:17;6.95;;;2.83;;
81056;SDS011;70563;50.084;14.468;2023-10-09T07:11:53;8.55;;;3.60;;
81056;SDS011;70563;50.084;14.468;2023-10-09T07:14:19;5.95;;;3.15;;
81056;SDS011;70563;50.084;14.468;2023-10-09T07:19:26;5.28;;;3.47;;
81056;SDS011;70563;50.084;14.468;2023-10-09T07:22:04;4.53;;;3.10;;
81056;SDS011;70563;50.084;14.468;2023-10-09T07:24:40;5.13;;;3.58;;
81056;SDS011;70563;50.084;14.468;2023-10-09T07:27:09;6.82;;;3.47;;
81056;SDS011;70563;50.084;14.468;2023-10-09T07:29:39;5.28;;;3.42;;
81056;SDS011;70563;50.084;14.468;2023-10-09T07:32:16;5.47;;;3.45;;
81056;SDS011;70563;50.084;14.468;2023-10-09T07:34:51;7.35;;;3.55;;
81056;SDS011;70563;50.084;14.468;2023-10-09T07:37:25;6.97;;;3.97;;
81056;SDS011;70563;50.084;14.468;2023-10-09T07:40:03;10.75;;;3.42;;
81056;SDS011;70563;50.084;14.468;2023-10-09T07:42:32;7.00;;;3.65;;
81056;SDS011;70563;50.084;14.468;2023-10-09T07:45:01;7.03;;;3.42;;
81056;SDS011;70563;50.084;14.468;2023-10-09T07:47:46;10.20;;;4.03;;
81056;SDS011;70563;50.084;14.468;2023-10-09T07:50:28;7.72;;;4.07;;
81056;SDS011;70563;50.084;14.468;2023-10-09T07:53:15;8.07;;;3.92;;
81056;SDS011;70563;50.084;14.468;2023-10-09T07:55:46;7.72;;;4.05;;
81056;SDS011;70563;50.084;14.468;2023-10-09T07:58:22;8.68;;;4.47;;
81056;SDS011;70563;50.084;14.468;2023-10-09T08:00:54;9.25;;;4.68;;
81056;SDS011;70563;50.084;14.468;2023-10-09T08:03:23;8.88;;;4.65;;
81056;SDS011;70563;50.084;14.468;2023-10-09T08:05:57;10.30;;;4.63;;
81056;SDS011;70563;50.084;14.468;2023-10-09T08:08:43;6.78;;;4.20;;
81056;SDS011;70563;50.084;14.468;2023-10-09T08:11:29;7.63;;;4.35;;
81056;SDS011;70563;50.084;14.468;2023-10-09T08:14:11;6.88;;;4.28;;
81056;SDS011;70563;50.084;14.468;2023-10-09T08:16:46;7.05;;;4.40;;
81056;SDS011;70563;50.084;14.468;2023-10-09T08:19:12;7.68;;;4.95;;
81056;SDS011;70563;50.084;14.468;2023-10-09T08:21:56;11.50;;;5.15;;
81056;SDS011;70563;50.084;14.468;2023-10-09T08:24:40;8.75;;;5.20;;
81056;SDS011;70563;50.084;14.468;2023-10-09T08:27:15;7.63;;;4.85;;
81056;SDS011;70563;50.084;14.468;2023-10-09T08:29:59;8.50;;;5.03;;
81056;SDS011;70563;50.084;14.468;2023-10-09T08:32:53;10.95;;;4.70;;
81056;SDS011;70563;50.084;14.468;2023-10-09T08:35:31;9.52;;;5.03;;
81056;SDS011;70563;50.084;14.468;2023-10-09T08:38:02;10.00;;;5.07;;
81056;SDS011;70563;50.084;14.468;2023-10-09T08:40:37;6.57;;;4.32;;
81056;SDS011;70563;50.084;14.468;2023-10-09T08:43:18;10.50;;;5.13;;
81056;SDS011;70563;50.084;14.468;2023-10-09T08:48:17;9.98;;;5.70;;
81056;SDS011;70563;50.084;14.468;2023-10-09T08:50:46;8.70;;;5.05;;
81056;SDS011;70563;50.084;14.468;2023-10-09T08:53:14;9.25;;;4.70;;
81056;SDS011;70563;50.084;14.468;2023-10-09T08:55:41;10.68;;;5.07;;
81056;SDS011;70563;50.084;14.468;2023-10-09T08:58:07;10.02;;;5.53;;
81056;SDS011;70563;50.084;14.468;2023-10-09T09:00:46;22.55;;;6.70;;
81056;SDS011;70563;50.084;14.468;2023-10-09T09:03:15;9.68;;;5.20;;
81056;SDS011;70563;50.084;14.468;2023-10-09T09:05:48;8.57;;;5.60;;
81056;SDS011;70563;50.084;14.468;2023-10-09T09:08:22;9.52;;;4.90;;
81056;SDS011;70563;50.084;14.468;2023-10-09T09:11:00;10.73;;;5.15;;
81056;SDS011;70563;50.084;14.468;2023-10-09T09:14:03;10.77;;;5.68;;
81056;SDS011;70563;50.084;14.468;2023-10-09T09:16:40;9.38;;;5.20;;
81056;SDS011;70563;50.084;14.468;2023-10-09T09:19:12;10.60;;;5.88;;
81056;SDS011;70563;50.084;14.468;2023-10-09T09:21:50;8.75;;;4.60;;
81056;SDS011;70563;50.084;14.468;2023-10-09T09:24:19;9.45;;;5.32;;
81056;SDS011;70563;50.084;14.468;2023-10-09T09:26:49;9.63;;;5.05;;
81056;SDS011;70563;50.084;14.468;2023-10-09T09:32:01;8.13;;;5.22;;
81056;SDS011;70563;50.084;14.468;2023-10-09T09:34:52;10.65;;;5.97;;
81056;SDS011;70563;50.084;14.468;2023-10-09T09:37:29;10.60;;;6.15;;
81056;SDS011;70563;50.084;14.468;2023-10-09T09:40:08;11.77;;;5.85;;
81056;SDS011;70563;50.084;14.468;2023-10-09T09:42:43;8.85;;;6.28;;
81056;SDS011;70563;50.084;14.468;2023-10-09T09:45:13;11.05;;;6.47;;
81056;SDS011;70563;50.084;14.468;2023-10-09T09:47:39;12.02;;;7.13;;
81056;SDS011;70563;50.084;14.468;2023-10-09T09:50:11;17.60;;;9.13;;
81056;SDS011;70563;50.084;14.468;2023-10-09T09:52:47;9.02;;;6.40;;
81056;SDS011;70563;50.084;14.468;2023-10-09T09:55:15;10.30;;;6.57;;
81056;SDS011;70563;50.084;14.468;2023-10-09T09:57:46;13.48;;;8.32;;
81056;SDS011;70563;50.084;14.468;2023-10-09T10:00:16;10.57;;;6.28;;
81056;SDS011;70563;50.084;14.468;2023-10-09T10:03:05;9.93;;;5.18;;
81056;SDS011;70563;50.084;14.468;2023-10-09T10:05:33;9.95;;;5.70;;
81056;SDS011;70563;50.084;14.468;2023-10-09T10:08:00;10.27;;;5.85;;
81056;SDS011;70563;50.084;14.468;2023-10-09T10:10:39;10.77;;;6.00;;
81056;SDS011;70563;50.084;14.468;2023-10-09T10:14:04;10.30;;;5.45;;
81056;SDS011;70563;50.084;14.468;2023-10-09T10:16:14;12.82;;;6.32;;
81056;SDS011;70563;50.084;14.468;2023-10-09T10:19:16;8.85;;;5.90;;
81056;SDS011;70563;50.084;14.468;2023-10-09T10:21:43;11.02;;;5.78;;
81056;SDS011;70563;50.084;14.468;2023-10-09T10:32:56;9.77;;;5.13;;
81056;SDS011;70563;50.084;14.468;2023-10-09T10:35:24;10.77;;;5.35;;
81056;SDS011;70563;50.084;14.468;2023-10-09T10:41:15;9.25;;;6.28;;
81056;SDS011;70563;50.084;14.468;2023-10-09T10:43:43;8.00;;;5.75;;
81056;SDS011;70563;50.084;14.468;2023-10-09T10:46:15;8.68;;;5.90;;
81056;SDS011;70563;50.084;14.468;2023-10-09T10:48:55;13.85;;;6.05;;
81056;SDS011;70563;50.084;14.468;2023-10-09T10:51:26;11.27;;;5.47;;
81056;SDS011;70563;50.084;14.468;2023-10-09T10:54:03;12.10;;;6.85;;
81056;SDS011;70563;50.084;14.468;2023-10-09T10:56:48;11.50;;;5.97;;
81056;SDS011;70563;50.084;14.468;2023-10-09T10:59:14;10.75;;;6.10;;
81056;SDS011;70563;50.084;14.468;2023-10-09T11:01:47;12.95;;;5.82;;
81056;SDS011;70563;50.084;14.468;2023-10-09T11:04:28;11.77;;;6.22;;
81056;SDS011;70563;50.084;14.468;2023-10-09T11:06:57;11.20;;;5.97;;
81056;SDS011;70563;50.084;14.468;2023-10-09T11:18:09;10.35;;;5.57;;
81056;SDS011;70563;50.084;14.468;2023-10-09T11:20:48;11.27;;;6.80;;
81056;SDS011;70563;50.084;14.468;2023-10-09T11:23:30;10.73;;;5.45;;
81056;SDS011;70563;50.084;14.468;2023-10-09T11:25:59;10.60;;;6.00;;
81056;SDS011;70563;50.084;14.468;2023-10-09T11:34:22;8.88;;;5.35;;
81056;SDS011;70563;50.084;14.468;2023-10-09T11:36:57;10.82;;;5.78;;
81056;SDS011;70563;50.084;14.468;2023-10-09T11:39:24;10.63;;;5.65;;
81056;SDS011;70563;50.084;14.468;2023-10-09T11:42:06;14.65;;;5.75;;
81056;SDS011;70563;50.084;14.468;2023-10-09T11:44:37;10.90;;;5.90;;
81056;SDS011;70563;50.084;14.468;2023-10-09T11:47:10;10.07;;;6.30;;
81056;SDS011;70563;50.084;14.468;2023-10-09T11:49:57;8.95;;;6.13;;
81056;SDS011;70563;50.084;14.468;2023-10-09T11:52:29;11.20;;;6.57;;
81056;SDS011;70563;50.084;14.468;2023-10-09T11:55:03;9.52;;;5.30;;
81056;SDS011;70563;50.084;14.468;2023-10-09T11:57:31;10.15;;;6.55;;
81056;SDS011;70563;50.084;14.468;2023-10-09T12:00:03;8.70;;;5.60;;
81056;SDS011;70563;50.084;14.468;2023-10-09T12:02:36;11.63;;;6.40;;
81056;SDS011;70563;50.084;14.468;2023-10-09T12:05:09;9.73;;;6.10;;
81056;SDS011;70563;50.084;14.468;2023-10-09T12:07:42;11.57;;;6.43;;
81056;SDS011;70563;50.084;14.468;2023-10-09T12:10:11;11.65;;;5.85;;
81056;SDS011;70563;50.084;14.468;2023-10-09T12:12:38;10.07;;;6.25;;
81056;SDS011;70563;50.084;14.468;2023-10-09T12:15:05;10.52;;;5.63;;
81056;SDS011;70563;50.084;14.468;2023-10-09T12:17:31;10.40;;;5.80;;
81056;SDS011;70563;50.084;14.468;2023-10-09T12:19:57;11.00;;;6.05;;
81056;SDS011;70563;50.084;14.468;2023-10-09T12:22:23;7.32;;;4.68;;
81056;SDS011;70563;50.084;14.468;2023-10-09T12:24:52;9.75;;;5.35;;
81056;SDS011;70563;50.084;14.468;2023-10-09T12:27:18;10.02;;;6.72;;
81056;SDS011;70563;50.084;14.468;2023-10-09T12:29:45;9.52;;;5.85;;
81056;SDS011;70563;50.084;14.468;2023-10-09T12:32:11;10.43;;;5.60;;
81056;SDS011;70563;50.084;14.468;2023-10-09T12:34:36;9.82;;;5.85;;
81056;SDS011;70563;50.084;14.468;2023-10-09T12:37:03;12.23;;;5.63;;
81056;SDS011;70563;50.084;14.468;2023-10-09T12:39:29;9.02;;;4.65;;
81056;SDS011;70563;50.084;14.468;2023-10-09T12:42:05;9.98;;;5.25;;
81056;SDS011;70563;50.084;14.468;2023-10-09T12:44:33;9.00;;;5.68;;
81056;SDS011;70563;50.084;14.468;2023-10-09T12:47:04;9.07;;;4.78;;
81056;SDS011;70563;50.084;14.468;2023-10-09T12:49:32;8.40;;;5.18;;
81056;SDS011;70563;50.084;14.468;2023-10-09T12:51:58;9.80;;;4.97;;
81056;SDS011;70563;50.084;14.468;2023-10-09T12:54:27;8.13;;;4.93;;
81056;SDS011;70563;50.084;14.468;2023-10-09T12:56:53;9.40;;;4.78;;
81056;SDS011;70563;50.084;14.468;2023-10-09T12:59:22;9.18;;;5.45;;
81056;SDS011;70563;50.084;14.468;2023-10-09T13:01:49;9.32;;;5.68;;
81056;SDS011;70563;50.084;14.468;2023-10-09T13:04:17;7.30;;;4.88;;
81056;SDS011;70563;50.084;14.468;2023-10-09T13:06:47;9.52;;;5.03;;
81056;SDS011;70563;50.084;14.468;2023-10-09T13:09:16;7.85;;;4.93;;
81056;SDS011;70563;50.084;14.468;2023-10-09T13:12:07;7.57;;;5.30;;
81056;SDS011;70563;50.084;14.468;2023-10-09T13:14:33;7.15;;;5.18;;
81056;SDS011;70563;50.084;14.468;2023-10-09T13:17:00;8.77;;;5.55;;
81056;SDS011;70563;50.084;14.468;2023-10-09T13:19:33;8.38;;;5.32;;
81056;SDS011;70563;50.084;14.468;2023-10-09T13:21:59;9.65;;;5.53;;
81056;SDS011;70563;50.084;14.468;2023-10-09T13:24:28;9.10;;;5.55;;
81056;SDS011;70563;50.084;14.468;2023-10-09T13:26:54;12.77;;;6.20;;
81056;SDS011;70563;50.084;14.468;2023-10-09T13:29:23;9.80;;;5.70;;
81056;SDS011;70563;50.084;14.468;2023-10-09T13:31:48;11.90;;;5.88;;
81056;SDS011;70563;50.084;14.468;2023-10-09T13:34:17;13.77;;;6.13;;
81056;SDS011;70563;50.084;14.468;2023-10-09T13:36:43;13.05;;;6.10;;
81056;SDS011;70563;50.084;14.468;2023-10-09T13:39:37;11.85;;;6.30;;
81056;SDS011;70563;50.084;14.468;2023-10-09T13:42:05;11.48;;;5.43;;
81056;SDS011;70563;50.084;14.468;2023-10-09T13:44:32;12.43;;;5.90;;
81056;SDS011;70563;50.084;14.468;2023-10-09T13:46:59;11.95;;;6.40;;
81056;SDS011;70563;50.084;14.468;2023-10-09T13:49:29;12.50;;;6.32;;
81056;SDS011;70563;50.084;14.468;2023-10-09T13:51:58;11.68;;;5.78;;
81056;SDS011;70563;50.084;14.468;2023-10-09T13:54:26;10.05;;;5.78;;
81056;SDS011;70563;50.084;14.468;2023-10-09T13:56:55;10.30;;;5.55;;
81056;SDS011;70563;50.084;14.468;2023-10-09T13:59:21;10.30;;;6.20;;
81056;SDS011;70563;50.084;14.468;2023-10-09T14:01:55;9.35;;;4.97;;
81056;SDS011;70563;50.084;14.468;2023-10-09T14:04:24;14.43;;;5.70;;
81056;SDS011;70563;50.084;14.468;2023-10-09T14:06:51;11.18;;;5.45;;
81056;SDS011;70563;50.084;14.468;2023-10-09T14:09:27;9.35;;;6.05;;
81056;SDS011;70563;50.084;14.468;2023-10-09T14:12:02;13.45;;;5.40;;
81056;SDS011;70563;50.084;14.468;2023-10-09T14:14:42;10.80;;;6.15;;
81056;SDS011;70563;50.084;14.468;2023-10-09T14:17:19;8.90;;;5.15;;
81056;SDS011;70563;50.084;14.468;2023-10-09T14:19:48;10.85;;;5.97;;
81056;SDS011;70563;50.084;14.468;2023-10-09T14:22:24;9.18;;;5.40;;
81056;SDS011;70563;50.084;14.468;2023-10-09T14:24:51;8.70;;;4.97;;
81056;SDS011;70563;50.084;14.468;2023-10-09T14:27:20;10.70;;;5.85;;
81056;SDS011;70563;50.084;14.468;2023-10-09T14:29:51;9.93;;;6.22;;
81056;SDS011;70563;50.084;14.468;2023-10-09T14:32:21;11.55;;;5.78;;
81056;SDS011;70563;50.084;14.468;2023-10-09T14:34:51;10.52;;;6.00;;
81056;SDS011;70563;50.084;14.468;2023-10-09T14:37:19;12.80;;;5.95;;
81056;SDS011;70563;50.084;14.468;2023-10-09T14:39:45;8.82;;;5.07;;
81056;SDS011;70563;50.084;14.468;2023-10-09T14:42:13;9.93;;;5.47;;
81056;SDS011;70563;50.084;14.468;2023-10-09T14:44:40;16.60;;;6.28;;
81056;SDS011;70563;50.084;14.468;2023-10-09T14:47:06;12.18;;;5.88;;
81056;SDS011;70563;50.084;14.468;2023-10-09T14:49:32;12.18;;;6.65;;
81056;SDS011;70563;50.084;14.468;2023-10-09T14:52:08;11.63;;;6.15;;
81056;SDS011;70563;50.084;14.468;2023-10-09T14:54:34;10.68;;;5.43;;
81056;SDS011;70563;50.084;14.468;2023-10-09T14:57:00;10.70;;;5.93;;
81056;SDS011;70563;50.084;14.468;2023-10-09T14:59:26;11.40;;;5.68;;
81056;SDS011;70563;50.084;14.468;2023-10-09T15:01:51;10.60;;;5.10;;
81056;SDS011;70563;50.084;14.468;2023-10-09T15:04:19;8.77;;;5.85;;
81056;SDS011;70563;50.084;14.468;2023-10-09T15:06:45;11.40;;;4.68;;
81056;SDS011;70563;50.084;14.468;2023-10-09T15:09:14;9.68;;;4.95;;
81056;SDS011;70563;50.084;14.468;2023-10-09T15:11:47;10.18;;;5.18;;
81056;SDS011;70563;50.084;14.468;2023-10-09T15:14:13;11.60;;;5.20;;
81056;SDS011;70563;50.084;14.468;2023-10-09T15:16:39;8.60;;;5.15;;
81056;SDS011;70563;50.084;14.468;2023-10-09T15:19:04;10.13;;;5.78;;
81056;SDS011;70563;50.084;14.468;2023-10-09T15:21:30;11.55;;;5.78;;
81056;SDS011;70563;50.084;14.468;2023-10-09T15:23:58;12.93;;;6.30;;
81056;SDS011;70563;50.084;14.468;2023-10-09T15:26:24;9.55;;;5.32;;
81056;SDS011;70563;50.084;14.468;2023-10-09T15:28:50;10.23;;;5.00;;
81056;SDS011;70563;50.084;14.468;2023-10-09T15:31:16;9.40;;;4.97;;
81056;SDS011;70563;50.084;14.468;2023-10-09T15:33:43;10.20;;;5.07;;
81056;SDS011;70563;50.084;14.468;2023-10-09T15:36:12;9.20;;;5.20;;
81056;SDS011;70563;50.084;14.468;2023-10-09T15:38:38;9.23;;;5.82;;
81056;SDS011;70563;50.084;14.468;2023-10-09T15:41:03;9.88;;;5.55;;
81056;SDS011;70563;50.084;14.468;2023-10-09T15:43:31;10.85;;;5.53;;
81056;SDS011;70563;50.084;14.468;2023-10-09T15:45:58;11.43;;;5.50;;
81056;SDS011;70563;50.084;14.468;2023-10-09T15:48:24;9.70;;;5.85;;
81056;SDS011;70563;50.084;14.468;2023-10-09T15:50:50;10.40;;;5.65;;